Morgantown Municipal Walter L. Bill Hart Field
KMGW : now visible

Airfield :











YOU CAN JOIN US ON...

 
LOGIN :

Register | Disclaimer

   EN    FR    IT 

 









Legend :    VFR   Marginal VFR   IFR   Intensive IFR   Very Intensive IFR
Visi :
Ceiling :
>= 8 km
>= 3000ft
5 to 8 km
1000 to 3000 ft
1500m to 5 km
500 to 1000 ft
800 to 1500m
200 to 500 ft
< 800m
< 200 ft
Symbols :   Thunderstorms  Fog  Heavy snow  Heavy precipitations  Wind > 20 kt






- Airport Elevation : 1248 ft
- IATA code : MGW


KMGW - Morgantown Municipal Walter L. Bill Hart Field

CURRENT METAR :
  • 290753Z AUTO 00000KT 10SM OVC039 06/03 A3011 RMK AO2 SLP201 T00610028

EXPIRED METARs :
  • 290653Z AUTO 18003KT 10SM SCT021 OVC039 06/03 A3011 RMK AO2 SLP200 T00610028
  • 290553Z AUTO 00000KT 10SM FEW024 OVC040 06/03 A3011 RMK AO2 SLP201 T00560028 10067 20056 50007
  • 290537Z AUTO 00000KT 10SM SCT022 OVC040 06/03 A3012 RMK AO2 T00610028

TAF KMGW
Valid from the 29 at 06:00 until the 30 at 06:00 UTC


290531Z 2906/3006 00000KT P6SM OVC025
FM290900 00000KT P6SM BKN035
FM291600 15006KT P6SM SCT045 BKN250
FM300400 16007KT P6SM VCSH BKN100
KZOB FIR / North America



MET'MAP, your aeronautical weather chart ! - Copyright ORBIFLY December 2007 - Disclaimer

ORBIFLY MET'MAP TEAM :

Programming & Development : Alexandra Zaïnal
Original concept : Baudouin d'Aumeries
Technical & hardware support : Manuel Goepfert
Assistance : Marc-Olivier Méhu




SOURCES & CREDITS :

   NOAA       Earth
Advisory